createdAt,value
2022-09-11T00:01:14.635Z,11.05
2022-09-11T00:03:43.753Z,66.33
2022-09-11T00:06:27.432Z,17.00
2022-09-11T00:08:44.195Z,12.37
2022-09-11T00:11:15.716Z,12.45
2022-09-11T00:13:45.299Z,11.45
2022-09-11T00:16:27.126Z,12.15
2022-09-11T00:18:56.306Z,10.63
2022-09-11T00:21:24.621Z,11.80
2022-09-11T00:23:53.186Z,10.78
2022-09-11T00:26:21.887Z,12.35
2022-09-11T00:28:50.472Z,11.57
2022-09-11T00:31:20.102Z,11.57
2022-09-11T00:33:48.666Z,12.10
2022-09-11T00:36:18.466Z,11.85
2022-09-11T00:38:47.553Z,10.85
2022-09-11T00:41:19.887Z,12.13
2022-09-11T00:44:04.815Z,11.83
2022-09-11T00:46:37.533Z,10.95
2022-09-11T00:49:14.334Z,12.93
2022-09-11T00:51:42.854Z,12.58
2022-09-11T00:54:12.630Z,12.40
2022-09-11T00:56:41.745Z,14.03
2022-09-11T00:59:10.432Z,13.25
2022-09-11T01:01:38.736Z,13.35
2022-09-11T01:04:08.260Z,13.75
2022-09-11T01:06:36.460Z,13.93
2022-09-11T01:09:04.682Z,13.30
2022-09-11T01:11:34.531Z,13.93
2022-09-11T01:14:04.390Z,13.43
2022-09-11T01:16:34.580Z,13.55
2022-09-11T01:19:08.763Z,13.58
2022-09-11T01:21:38.495Z,13.43
2022-09-11T01:24:09.034Z,13.88
2022-09-11T01:26:38.793Z,14.30
2022-09-11T01:29:17.868Z,13.08
2022-09-11T01:32:04.290Z,15.32
2022-09-11T01:34:37.085Z,14.90
2022-09-11T01:39:34.402Z,15.20
2022-09-11T01:42:07.012Z,14.30
2022-09-11T01:44:36.771Z,15.53
2022-09-11T01:47:05.949Z,16.62
2022-09-11T01:49:38.617Z,15.68
2022-09-11T01:52:11.295Z,15.58
2022-09-11T01:54:42.131Z,16.20
2022-09-11T01:57:13.742Z,16.52
2022-09-11T01:59:43.975Z,16.57
2022-09-11T02:02:13.789Z,17.10
2022-09-11T02:04:49.333Z,17.25
2022-09-11T02:07:19.053Z,17.17
2022-09-11T02:09:51.809Z,19.55
2022-09-11T02:12:23.368Z,16.97
2022-09-11T02:14:53.023Z,16.07
2022-09-11T02:17:28.691Z,18.17
2022-09-11T02:19:57.660Z,17.80
2022-09-11T02:22:25.918Z,17.90
2022-09-11T02:24:54.599Z,18.55
2022-09-11T02:27:27.120Z,17.70
2022-09-11T02:29:55.926Z,18.12
2022-09-11T02:32:26.615Z,18.80
2022-09-11T02:34:55.804Z,18.62
2022-09-11T02:37:40.911Z,19.20
2022-09-11T02:40:28.718Z,18.30
2022-09-11T02:43:15.919Z,19.52
2022-09-11T02:45:48.377Z,19.15
2022-09-11T02:48:20.534Z,19.17
2022-09-11T02:51:02.245Z,19.87
2022-09-11T02:53:34.728Z,21.00
2022-09-11T02:56:04.486Z,19.73
2022-09-11T02:58:34.231Z,21.52
2022-09-11T03:01:03.097Z,20.85
2022-09-11T03:03:40.530Z,20.55
2022-09-11T03:06:13.009Z,22.05
2022-09-11T03:08:41.370Z,20.92
2022-09-11T03:11:09.661Z,22.37
2022-09-11T03:13:38.311Z,22.20
2022-09-11T03:16:07.506Z,21.75
2022-09-11T03:18:35.782Z,21.97
2022-09-11T03:21:06.008Z,21.30
2022-09-11T03:23:33.971Z,23.65
2022-09-11T03:26:02.209Z,22.60
2022-09-11T03:28:31.168Z,20.95
2022-09-11T03:30:59.397Z,22.93
2022-09-11T03:33:30.574Z,22.80
2022-09-11T03:35:59.451Z,23.70
2022-09-11T03:38:29.202Z,23.75
2022-09-11T03:40:58.185Z,23.07
2022-09-11T03:43:28.564Z,22.87
2022-09-11T03:45:56.799Z,24.85
2022-09-11T03:48:25.266Z,24.40
2022-09-11T03:50:54.322Z,24.52
2022-09-11T03:53:22.620Z,24.27
2022-09-11T03:55:50.902Z,28.15
2022-09-11T03:58:21.665Z,26.10
2022-09-11T04:00:49.966Z,28.92
2022-09-11T04:03:18.172Z,28.17
2022-09-11T04:05:47.931Z,31.10
2022-09-11T04:08:16.599Z,29.57
2022-09-11T04:10:44.818Z,27.90
2022-09-11T04:13:13.010Z,27.48
2022-09-11T04:15:42.513Z,25.23
2022-09-11T04:18:10.727Z,26.40
2022-09-11T04:20:39.787Z,27.32
2022-09-11T04:23:08.751Z,26.02
2022-09-11T04:25:37.535Z,27.30
2022-09-11T04:28:05.755Z,27.35
2022-09-11T04:30:35.643Z,26.87
2022-09-11T04:33:05.057Z,25.65
2022-09-11T04:35:33.546Z,25.43
2022-09-11T04:38:01.769Z,24.00
2022-09-11T04:40:33.000Z,25.02
2022-09-11T04:43:02.051Z,24.85
2022-09-11T04:45:33.576Z,24.07
2022-09-11T04:48:01.734Z,25.43
2022-09-11T04:50:31.325Z,25.55
2022-09-11T04:52:59.664Z,26.07
2022-09-11T04:55:27.850Z,28.35
2022-09-11T04:57:56.815Z,27.73
2022-09-11T05:00:25.738Z,27.48
2022-09-11T05:02:54.392Z,25.35
2022-09-11T05:05:22.625Z,23.87
2022-09-11T05:07:50.828Z,23.40
2022-09-11T05:10:19.935Z,23.75
2022-09-11T05:12:48.144Z,23.62
2022-09-11T05:15:16.440Z,24.50
2022-09-11T05:17:44.616Z,24.05
2022-09-11T05:20:12.905Z,25.08
2022-09-11T05:22:41.233Z,26.68
2022-09-11T05:25:09.518Z,27.22
2022-09-11T05:27:37.733Z,26.25
2022-09-11T05:30:06.437Z,26.45
2022-09-11T05:32:37.539Z,26.37
2022-09-11T05:35:07.023Z,26.07
2022-09-11T05:37:38.135Z,24.60
2022-09-11T05:40:06.831Z,25.35
2022-09-11T05:42:35.042Z,28.12
2022-09-11T05:45:03.327Z,24.95
2022-09-11T05:47:31.638Z,24.23
2022-09-11T05:49:59.928Z,23.38
2022-09-11T05:52:30.163Z,23.20
2022-09-11T05:54:58.434Z,22.20
2022-09-11T05:57:26.655Z,23.20
2022-09-11T05:59:54.884Z,23.10
2022-09-11T06:02:23.193Z,23.60
2022-09-11T06:04:51.902Z,22.55
2022-09-11T06:07:20.195Z,22.73
2022-09-11T06:09:48.498Z,22.15
2022-09-11T06:12:18.431Z,22.48
2022-09-11T06:14:46.658Z,23.05
2022-09-11T06:17:14.856Z,22.80
2022-09-11T06:19:43.087Z,23.42
2022-09-11T06:22:11.382Z,22.37
2022-09-11T06:24:39.689Z,22.60
2022-09-11T06:27:07.894Z,21.02
2022-09-11T06:29:37.829Z,22.58
2022-09-11T06:32:06.598Z,23.60
2022-09-11T06:34:34.804Z,22.25
2022-09-11T06:37:03.084Z,21.55
2022-09-11T06:39:31.499Z,22.22
2022-09-11T06:41:59.954Z,22.52
2022-09-11T06:44:28.200Z,22.13
2022-09-11T06:46:57.401Z,20.92
2022-09-11T06:49:25.683Z,21.55
2022-09-11T06:51:54.256Z,21.93
2022-09-11T06:54:22.466Z,21.77
2022-09-11T06:56:50.698Z,22.25
2022-09-11T06:59:18.926Z,20.82
2022-09-11T07:01:47.569Z,21.37
2022-09-11T07:04:16.753Z,21.17
2022-09-11T07:06:44.942Z,20.43
2022-09-11T07:09:13.241Z,20.88
2022-09-11T07:11:43.094Z,21.15
2022-09-11T07:14:11.308Z,21.12
2022-09-11T07:16:39.772Z,20.77
2022-09-11T07:19:09.481Z,23.30
2022-09-11T07:21:38.217Z,21.95
2022-09-11T07:24:06.877Z,22.45
2022-09-11T07:26:36.184Z,20.08
2022-09-11T07:29:04.669Z,21.17
2022-09-11T07:31:34.265Z,21.25
2022-09-11T07:34:02.740Z,22.48
2022-09-11T07:36:32.412Z,20.35
2022-09-11T07:39:00.998Z,20.12
2022-09-11T07:41:29.358Z,19.95
2022-09-11T07:44:00.571Z,20.32
2022-09-11T07:46:30.403Z,19.73
2022-09-11T07:48:58.703Z,19.48
2022-09-11T07:51:26.944Z,18.92
2022-09-11T07:53:57.897Z,18.02
2022-09-11T07:56:27.025Z,18.40
2022-09-11T07:58:56.287Z,18.17
2022-09-11T08:01:26.078Z,19.37
2022-09-11T08:03:56.922Z,19.62
2022-09-11T08:06:26.965Z,18.65
2022-09-11T08:08:56.097Z,18.95
2022-09-11T08:11:24.707Z,19.62
2022-09-11T08:13:53.580Z,18.32
2022-09-11T08:16:24.795Z,19.32
2022-09-11T08:18:53.208Z,18.80
2022-09-11T08:21:22.286Z,18.82
2022-09-11T08:23:50.668Z,18.87
2022-09-11T08:26:23.522Z,18.30
2022-09-11T08:31:21.047Z,18.75
2022-09-11T08:33:51.930Z,17.85
2022-09-11T08:36:20.524Z,18.25
2022-09-11T08:38:49.220Z,18.30
2022-09-11T08:41:21.907Z,18.87
2022-09-11T08:43:51.630Z,18.98
2022-09-11T08:46:22.042Z,18.42
2022-09-11T08:49:06.761Z,18.62
2022-09-11T08:51:36.030Z,18.07
2022-09-11T08:54:06.419Z,18.05
2022-09-11T08:56:36.104Z,18.62
2022-09-11T08:59:06.185Z,18.67
2022-09-11T09:01:38.874Z,18.57
2022-09-11T09:04:21.124Z,17.73
2022-09-11T09:06:53.924Z,18.57
2022-09-11T09:11:54.367Z,16.62
2022-09-11T09:17:09.568Z,16.32
2022-09-11T09:19:39.344Z,16.45
2022-09-11T09:22:21.296Z,17.27
2022-09-11T09:24:51.241Z,16.73
2022-09-11T09:27:21.276Z,16.90
2022-09-11T09:29:51.655Z,17.27
2022-09-11T09:32:24.121Z,17.37
2022-09-11T09:34:55.335Z,17.87
2022-09-11T09:37:25.984Z,16.48
2022-09-11T09:39:54.763Z,16.77
2022-09-11T09:42:24.546Z,16.50
2022-09-11T09:45:00.996Z,16.10
2022-09-11T09:47:29.781Z,16.80
2022-09-11T09:49:59.677Z,18.62
2022-09-11T09:52:29.467Z,17.37
2022-09-11T09:55:01.060Z,16.45
2022-09-11T09:57:36.738Z,16.45
2022-09-11T10:00:07.094Z,16.60
2022-09-11T10:02:42.668Z,17.17
2022-09-11T10:05:16.670Z,16.80
2022-09-11T10:07:49.446Z,16.77
2022-09-11T10:12:46.181Z,16.52
2022-09-11T10:15:17.026Z,17.20
2022-09-11T10:17:46.647Z,16.40
2022-09-11T10:20:18.052Z,17.73
2022-09-11T10:22:47.806Z,16.95
2022-09-11T10:25:16.963Z,15.58
2022-09-11T10:27:46.870Z,17.67
2022-09-11T10:30:33.735Z,17.42
2022-09-11T10:33:03.900Z,15.53
2022-09-11T10:35:33.748Z,15.50
2022-09-11T10:38:10.564Z,16.02
2022-09-11T10:40:39.833Z,14.98
2022-09-11T10:43:11.528Z,15.40
2022-09-11T10:45:39.823Z,14.90
2022-09-11T10:48:19.517Z,15.13
2022-09-11T10:50:48.199Z,15.55
2022-09-11T10:53:18.097Z,14.28
2022-09-11T10:55:51.302Z,15.83
2022-09-11T18:12:18.613Z,5.60
2022-09-11T18:14:47.180Z,5.58
2022-09-11T18:17:15.410Z,5.15
2022-09-11T18:19:43.988Z,5.28
2022-09-11T18:22:12.292Z,4.62
2022-09-11T18:24:40.586Z,4.53
2022-09-11T18:27:09.983Z,4.97
2022-09-11T18:29:39.956Z,4.80
2022-09-11T18:32:10.140Z,5.08
2022-09-11T18:34:38.413Z,5.03
2022-09-11T18:37:07.620Z,4.65
2022-09-11T18:39:35.905Z,5.35
2022-09-11T18:42:06.060Z,4.53
2022-09-11T18:44:34.349Z,5.35
2022-09-11T18:47:02.626Z,5.62
2022-09-11T18:49:30.856Z,4.97
2022-09-11T18:52:00.439Z,5.80
2022-09-11T18:54:29.895Z,5.97
2022-09-11T18:57:00.142Z,5.62
2022-09-11T18:59:27.983Z,6.22
2022-09-11T19:01:57.024Z,6.25
2022-09-11T19:04:26.670Z,8.23
2022-09-11T19:06:54.968Z,5.90
2022-09-11T19:09:23.239Z,5.80
2022-09-11T19:11:53.215Z,6.60
2022-09-11T19:14:21.621Z,5.22
2022-09-11T19:16:49.822Z,5.90
2022-09-11T19:19:18.319Z,5.78
2022-09-11T19:21:46.617Z,6.03
2022-09-11T19:24:14.819Z,6.10
2022-09-11T19:26:43.560Z,6.08
2022-09-11T19:29:13.163Z,6.37
2022-09-11T19:31:41.974Z,6.42
2022-09-11T19:34:12.014Z,6.22
2022-09-11T19:36:41.056Z,6.28
2022-09-11T19:39:10.765Z,5.80
2022-09-11T19:41:39.758Z,6.20
2022-09-11T19:44:08.926Z,5.47
2022-09-11T19:46:38.030Z,6.03
2022-09-11T19:49:07.007Z,6.03
2022-09-11T19:51:36.288Z,7.22
2022-09-11T19:54:04.892Z,6.72
2022-09-11T19:56:34.316Z,8.70
2022-09-11T19:59:02.470Z,5.65
2022-09-11T20:01:31.129Z,5.12
2022-09-11T20:04:00.557Z,4.97
2022-09-11T20:06:33.425Z,5.75
2022-09-11T20:11:32.021Z,5.08
2022-09-11T20:14:00.533Z,5.53
2022-09-11T20:16:29.024Z,5.22
2022-09-11T20:18:58.167Z,5.37
2022-09-11T20:21:26.688Z,6.35
2022-09-11T20:23:55.618Z,6.67
2022-09-11T20:26:25.094Z,6.62
2022-09-11T20:28:54.845Z,7.53
2022-09-11T20:31:24.606Z,8.28
2022-09-11T20:33:52.811Z,8.03
2022-09-11T20:36:21.488Z,8.90
2022-09-11T20:38:53.310Z,8.63
2022-09-11T20:41:24.202Z,9.35
2022-09-11T20:43:52.365Z,9.30
2022-09-11T20:46:20.780Z,8.35
2022-09-11T20:48:50.000Z,8.90
2022-09-11T20:51:18.480Z,9.03
2022-09-11T20:53:46.771Z,10.25
2022-09-11T20:56:15.967Z,9.95
2022-09-11T20:58:44.275Z,10.05
2022-09-11T21:01:16.528Z,8.85
2022-09-11T21:03:49.285Z,7.75
2022-09-11T21:08:56.099Z,10.45
2022-09-11T21:11:25.109Z,9.38
2022-09-11T21:13:53.594Z,10.03
2022-09-11T21:16:22.138Z,10.03
2022-09-11T21:18:51.626Z,10.05
2022-09-11T21:21:20.936Z,12.10
2022-09-11T21:23:49.508Z,12.88
2022-09-11T21:26:18.034Z,14.20
2022-09-11T21:28:46.338Z,14.63
2022-09-11T21:31:14.711Z,13.25
2022-09-11T21:33:43.084Z,13.03
2022-09-11T21:36:11.358Z,12.50
2022-09-11T21:38:39.683Z,13.78
2022-09-11T21:41:08.846Z,12.80
2022-09-11T21:43:37.443Z,14.05
2022-09-11T21:46:06.496Z,14.60
2022-09-11T21:48:36.077Z,14.85
2022-09-11T21:51:09.831Z,14.07
2022-09-11T21:53:41.278Z,15.10
2022-09-11T21:56:24.128Z,14.80
2022-09-11T21:58:52.591Z,14.25
2022-09-11T22:01:21.299Z,15.78
2022-09-11T22:03:49.923Z,15.10
2022-09-11T22:06:19.001Z,15.35
2022-09-11T22:08:47.290Z,15.78
2022-09-11T22:11:15.937Z,15.38
2022-09-11T22:13:44.523Z,14.15
2022-09-11T22:16:14.318Z,15.98
2022-09-11T22:18:42.623Z,15.65
2022-09-11T22:21:11.102Z,15.53
2022-09-11T22:23:39.309Z,15.45
2022-09-11T22:26:08.540Z,16.25
2022-09-11T22:28:37.298Z,15.55
2022-09-11T22:31:09.437Z,16.48
2022-09-11T22:33:39.180Z,16.75
2022-09-11T22:36:08.465Z,17.50
2022-09-11T22:38:36.923Z,17.05
2022-09-11T22:41:05.417Z,17.23
2022-09-11T22:43:33.620Z,16.67
2022-09-11T22:46:01.905Z,17.48
2022-09-11T22:48:30.171Z,17.27
2022-09-11T22:50:59.259Z,16.62
2022-09-11T22:53:28.060Z,16.97
2022-09-11T22:55:56.436Z,16.15
2022-09-11T22:58:24.656Z,16.87
2022-09-11T23:00:54.655Z,17.17
2022-09-11T23:03:22.992Z,16.50
2022-09-11T23:06:15.708Z,17.57
2022-09-11T23:08:45.448Z,16.12
2022-09-11T23:11:19.761Z,15.25
2022-09-11T23:13:48.400Z,14.23
2022-09-11T23:16:18.206Z,14.98
2022-09-11T23:18:46.779Z,14.75
2022-09-11T23:21:15.315Z,16.17
2022-09-11T23:23:45.023Z,15.45
2022-09-11T23:26:14.479Z,15.40
2022-09-11T23:28:42.737Z,17.62
2022-09-11T23:31:12.561Z,18.30
2022-09-11T23:33:41.002Z,18.40
2022-09-11T23:36:10.067Z,18.65
2022-09-11T23:38:38.366Z,18.07
2022-09-11T23:41:07.313Z,16.17
2022-09-11T23:43:36.034Z,13.88
2022-09-11T23:46:04.370Z,14.65
2022-09-11T23:48:32.583Z,16.62
2022-09-11T23:51:02.432Z,16.45
2022-09-11T23:53:31.102Z,16.40
2022-09-11T23:55:59.389Z,17.55
2022-09-11T23:58:27.608Z,17.67
